sensor_id;sensor_type;location;lat;lon;timestamp;pressure;altitude;pressure_sealevel;temperature;humidity
56402;BME280;42299;35.160;26.100;2024-03-07T00:03:04;101383.41;;;11.09;100.00
56402;BME280;42299;35.160;26.100;2024-03-07T00:08:26;101382.53;;;11.09;100.00
56402;BME280;42299;35.160;26.100;2024-03-07T00:13:52;101380.63;;;11.03;100.00
56402;BME280;42299;35.160;26.100;2024-03-07T00:19:14;101376.81;;;10.91;100.00
56402;BME280;42299;35.160;26.100;2024-03-07T00:24:37;101381.03;;;10.84;100.00
56402;BME280;42299;35.160;26.100;2024-03-07T00:30:01;101382.03;;;10.88;100.00
56402;BME280;42299;35.160;26.100;2024-03-07T00:35:23;101373.88;;;10.78;100.00
56402;BME280;42299;35.160;26.100;2024-03-07T00:40:46;101372.09;;;10.77;100.00
56402;BME280;42299;35.160;26.100;2024-03-07T00:46:11;101360.75;;;10.83;100.00
56402;BME280;42299;35.160;26.100;2024-03-07T00:51:34;101356.88;;;11.05;100.00
56402;BME280;42299;35.160;26.100;2024-03-07T00:56:57;101355.28;;;11.11;100.00
56402;BME280;42299;35.160;26.100;2024-03-07T01:02:21;101359.91;;;10.83;100.00
56402;BME280;42299;35.160;26.100;2024-03-07T01:07:43;101353.09;;;10.58;100.00
56402;BME280;42299;35.160;26.100;2024-03-07T01:13:07;101358.03;;;10.43;100.00
56402;BME280;42299;35.160;26.100;2024-03-07T01:18:38;101349.41;;;10.50;100.00
56402;BME280;42299;35.160;26.100;2024-03-07T01:24:00;101355.38;;;10.43;100.00
56402;BME280;42299;35.160;26.100;2024-03-07T01:29:23;101346.56;;;10.42;100.00
56402;BME280;42299;35.160;26.100;2024-03-07T01:34:47;101358.47;;;10.26;100.00
56402;BME280;42299;35.160;26.100;2024-03-07T01:40:10;101352.97;;;10.19;100.00
56402;BME280;42299;35.160;26.100;2024-03-07T01:45:36;101352.13;;;10.20;100.00
56402;BME280;42299;35.160;26.100;2024-03-07T01:51:01;101364.50;;;10.57;100.00
56402;BME280;42299;35.160;26.100;2024-03-07T01:56:25;101368.94;;;10.58;100.00
56402;BME280;42299;35.160;26.100;2024-03-07T02:01:47;101372.25;;;10.49;100.00
56402;BME280;42299;35.160;26.100;2024-03-07T02:07:12;101372.44;;;10.22;100.00
56402;BME280;42299;35.160;26.100;2024-03-07T02:12:35;101379.00;;;10.07;100.00
56402;BME280;42299;35.160;26.100;2024-03-07T02:17:57;101384.31;;;10.08;100.00
56402;BME280;42299;35.160;26.100;2024-03-07T02:23:21;101390.44;;;10.07;100.00
56402;BME280;42299;35.160;26.100;2024-03-07T02:28:43;101390.81;;;10.19;100.00
56402;BME280;42299;35.160;26.100;2024-03-07T02:34:06;101402.47;;;10.27;100.00
56402;BME280;42299;35.160;26.100;2024-03-07T02:39:30;101399.63;;;10.20;100.00
56402;BME280;42299;35.160;26.100;2024-03-07T02:44:53;101390.72;;;10.16;100.00
56402;BME280;42299;35.160;26.100;2024-03-07T02:50:15;101394.03;;;10.09;100.00
56402;BME280;42299;35.160;26.100;2024-03-07T02:55:39;101386.00;;;10.06;100.00
56402;BME280;42299;35.160;26.100;2024-03-07T03:01:02;101391.50;;;9.82;100.00
56402;BME280;42299;35.160;26.100;2024-03-07T03:06:25;101384.22;;;9.74;100.00
56402;BME280;42299;35.160;26.100;2024-03-07T03:11:49;101390.38;;;9.74;100.00
56402;BME280;42299;35.160;26.100;2024-03-07T03:17:12;101391.06;;;9.98;100.00
56402;BME280;42299;35.160;26.100;2024-03-07T03:22:35;101394.13;;;10.14;100.00
56402;BME280;42299;35.160;26.100;2024-03-07T03:27:59;101402.28;;;9.90;100.00
56402;BME280;42299;35.160;26.100;2024-03-07T03:33:21;101401.88;;;9.76;100.00
56402;BME280;42299;35.160;26.100;2024-03-07T03:38:44;101396.50;;;10.34;100.00
56402;BME280;42299;35.160;26.100;2024-03-07T03:44:08;101403.41;;;10.62;100.00
56402;BME280;42299;35.160;26.100;2024-03-07T03:49:30;101410.13;;;10.51;100.00
56402;BME280;42299;35.160;26.100;2024-03-07T03:54:53;101419.25;;;10.62;100.00
56402;BME280;42299;35.160;26.100;2024-03-07T04:00:17;101417.84;;;10.44;100.00
56402;BME280;42299;35.160;26.100;2024-03-07T04:05:43;101430.94;;;10.39;100.00
56402;BME280;42299;35.160;26.100;2024-03-07T04:11:08;101425.44;;;10.63;100.00
56402;BME280;42299;35.160;26.100;2024-03-07T04:16:32;101420.50;;;10.78;100.00
56402;BME280;42299;35.160;26.100;2024-03-07T04:21:55;101425.56;;;10.69;100.00
56402;BME280;42299;35.160;26.100;2024-03-07T04:27:17;101421.75;;;10.58;100.00
56402;BME280;42299;35.160;26.100;2024-03-07T04:32:41;101428.56;;;10.83;100.00
56402;BME280;42299;35.160;26.100;2024-03-07T04:38:03;101438.44;;;10.91;100.00
56402;BME280;42299;35.160;26.100;2024-03-07T04:43:30;101428.31;;;11.09;100.00
56402;BME280;42299;35.160;26.100;2024-03-07T04:48:55;101431.31;;;11.23;100.00
56402;BME280;42299;35.160;26.100;2024-03-07T04:54:18;101430.22;;;11.13;100.00
56402;BME280;42299;35.160;26.100;2024-03-07T04:59:40;101427.19;;;11.36;100.00
56402;BME280;42299;35.160;26.100;2024-03-07T05:05:05;101416.16;;;11.53;100.00
56402;BME280;42299;35.160;26.100;2024-03-07T05:10:28;101422.66;;;11.69;100.00
56402;BME280;42299;35.160;26.100;2024-03-07T05:15:51;101414.81;;;13.12;100.00
56402;BME280;42299;35.160;26.100;2024-03-07T05:21:15;101405.84;;;15.39;100.00
56402;BME280;42299;35.160;26.100;2024-03-07T05:26:58;101411.72;;;16.64;100.00
56402;BME280;42299;35.160;26.100;2024-03-07T05:32:21;101413.44;;;17.61;100.00
56402;BME280;42299;35.160;26.100;2024-03-07T05:37:46;101407.50;;;18.79;100.00
56402;BME280;42299;35.160;26.100;2024-03-07T05:43:08;101422.25;;;20.11;100.00
56402;BME280;42299;35.160;26.100;2024-03-07T05:48:31;101418.72;;;21.73;84.87
56402;BME280;42299;35.160;26.100;2024-03-07T05:53:55;101417.94;;;22.13;78.14
56402;BME280;42299;35.160;26.100;2024-03-07T05:59:17;101422.94;;;23.07;71.38
56402;BME280;42299;35.160;26.100;2024-03-07T06:04:40;101421.53;;;23.61;65.19
56402;BME280;42299;35.160;26.100;2024-03-07T06:10:05;101421.41;;;23.64;64.77
56402;BME280;42299;35.160;26.100;2024-03-07T06:15:32;101425.91;;;24.84;56.76
56402;BME280;42299;35.160;26.100;2024-03-07T06:20:55;101429.41;;;25.14;52.80
56402;BME280;42299;35.160;26.100;2024-03-07T06:26:19;101424.78;;;24.63;53.43
56402;BME280;42299;35.160;26.100;2024-03-07T06:31:57;101431.72;;;25.00;51.82
56402;BME280;42299;35.160;26.100;2024-03-07T06:37:21;101444.81;;;25.65;48.28
56402;BME280;42299;35.160;26.100;2024-03-07T06:42:45;101448.03;;;25.99;46.55
56402;BME280;42299;35.160;26.100;2024-03-07T06:48:08;101440.97;;;27.10;42.96
56402;BME280;42299;35.160;26.100;2024-03-07T06:53:31;101444.75;;;28.09;40.82
56402;BME280;42299;35.160;26.100;2024-03-07T06:58:55;101455.19;;;30.32;36.96
56402;BME280;42299;35.160;26.100;2024-03-07T07:04:19;101454.06;;;31.31;33.67
56402;BME280;42299;35.160;26.100;2024-03-07T07:09:42;101463.34;;;32.30;32.21
56402;BME280;42299;35.160;26.100;2024-03-07T07:15:07;101466.31;;;32.56;31.00
56402;BME280;42299;35.160;26.100;2024-03-07T07:20:31;101466.09;;;32.73;30.89
56402;BME280;42299;35.160;26.100;2024-03-07T07:25:55;101468.59;;;32.76;29.22
56402;BME280;42299;35.160;26.100;2024-03-07T07:31:19;101469.50;;;30.84;31.62
56402;BME280;42299;35.160;26.100;2024-03-07T07:36:42;101477.34;;;32.68;28.78
56402;BME280;42299;35.160;26.100;2024-03-07T07:42:04;101473.47;;;33.53;27.68
56402;BME280;42299;35.160;26.100;2024-03-07T07:47:31;101463.19;;;34.70;26.17
56402;BME280;42299;35.160;26.100;2024-03-07T07:52:54;101473.38;;;35.17;25.50
56402;BME280;42299;35.160;26.100;2024-03-07T07:58:17;101461.94;;;35.58;24.36
56402;BME280;42299;35.160;26.100;2024-03-07T08:03:41;101462.09;;;36.03;24.00
56402;BME280;42299;35.160;26.100;2024-03-07T08:09:05;101455.16;;;36.21;23.46
56402;BME280;42299;35.160;26.100;2024-03-07T08:14:30;101448.88;;;36.53;23.28
56402;BME280;42299;35.160;26.100;2024-03-07T08:19:55;101457.00;;;36.54;23.11
56402;BME280;42299;35.160;26.100;2024-03-07T08:25:18;101459.25;;;36.60;22.71
56402;BME280;42299;35.160;26.100;2024-03-07T08:30:41;101455.91;;;36.23;22.50
56402;BME280;42299;35.160;26.100;2024-03-07T08:36:05;101443.59;;;36.16;22.01
56402;BME280;42299;35.160;26.100;2024-03-07T08:41:30;101440.59;;;36.08;22.32
56402;BME280;42299;35.160;26.100;2024-03-07T08:46:57;101450.69;;;37.08;21.33
56402;BME280;42299;35.160;26.100;2024-03-07T08:52:22;101441.91;;;37.03;21.48
56402;BME280;42299;35.160;26.100;2024-03-07T08:57:44;101440.00;;;37.26;21.30
56402;BME280;42299;35.160;26.100;2024-03-07T09:03:07;101425.28;;;37.36;21.05
56402;BME280;42299;35.160;26.100;2024-03-07T09:08:33;101424.25;;;37.05;21.19
56402;BME280;42299;35.160;26.100;2024-03-07T09:13:55;101426.69;;;35.41;22.52
56402;BME280;42299;35.160;26.100;2024-03-07T09:19:18;101423.72;;;34.48;23.40
56402;BME280;42299;35.160;26.100;2024-03-07T09:24:46;101427.31;;;33.34;24.91
56402;BME280;42299;35.160;26.100;2024-03-07T09:30:10;101429.34;;;33.31;25.78
56402;BME280;42299;35.160;26.100;2024-03-07T09:35:35;101423.25;;;32.86;25.97
56402;BME280;42299;35.160;26.100;2024-03-07T09:41:01;101426.19;;;32.83;26.72
56402;BME280;42299;35.160;26.100;2024-03-07T09:46:24;101429.31;;;33.57;26.04
56402;BME280;42299;35.160;26.100;2024-03-07T09:51:50;101426.16;;;34.14;25.74
56402;BME280;42299;35.160;26.100;2024-03-07T09:57:18;101432.06;;;34.21;25.92
56402;BME280;42299;35.160;26.100;2024-03-07T10:02:41;101428.91;;;33.89;26.41
56402;BME280;42299;35.160;26.100;2024-03-07T10:08:05;101430.47;;;33.80;26.85
56402;BME280;42299;35.160;26.100;2024-03-07T10:13:30;101415.91;;;34.54;26.86
56402;BME280;42299;35.160;26.100;2024-03-07T10:18:52;101423.13;;;33.93;26.91
56402;BME280;42299;35.160;26.100;2024-03-07T10:24:15;101415.44;;;34.11;26.90
56402;BME280;42299;35.160;26.100;2024-03-07T10:29:40;101410.84;;;34.24;26.46
56402;BME280;42299;35.160;26.100;2024-03-07T10:35:06;101407.63;;;33.67;27.19
56402;BME280;42299;35.160;26.100;2024-03-07T10:40:29;101404.47;;;32.67;28.40
56402;BME280;42299;35.160;26.100;2024-03-07T10:45:54;101404.81;;;33.29;27.38
56402;BME280;42299;35.160;26.100;2024-03-07T10:51:26;101397.53;;;32.05;28.68
56402;BME280;42299;35.160;26.100;2024-03-07T10:57:03;101399.78;;;29.14;32.15
56402;BME280;42299;35.160;26.100;2024-03-07T11:02:49;101391.88;;;27.97;34.48
56402;BME280;42299;35.160;26.100;2024-03-07T11:08:15;101390.81;;;28.76;33.90
56402;BME280;42299;35.160;26.100;2024-03-07T11:13:38;101389.94;;;29.63;32.58
56402;BME280;42299;35.160;26.100;2024-03-07T11:19:24;101383.09;;;29.39;32.63
56402;BME280;42299;35.160;26.100;2024-03-07T11:25:00;101372.97;;;29.58;31.89
56402;BME280;42299;35.160;26.100;2024-03-07T11:30:27;101358.25;;;27.62;34.56
56402;BME280;42299;35.160;26.100;2024-03-07T11:35:51;101351.06;;;25.87;38.15
56402;BME280;42299;35.160;26.100;2024-03-07T11:41:14;101354.38;;;25.95;38.36
56402;BME280;42299;35.160;26.100;2024-03-07T11:46:45;101360.16;;;25.86;38.93
56402;BME280;42299;35.160;26.100;2024-03-07T11:52:11;101347.94;;;26.21;38.80
56402;BME280;42299;35.160;26.100;2024-03-07T11:57:34;101354.00;;;25.81;39.02
56402;BME280;42299;35.160;26.100;2024-03-07T12:02:57;101342.16;;;25.11;40.44
56402;BME280;42299;35.160;26.100;2024-03-07T12:08:22;101345.06;;;24.78;41.91
56402;BME280;42299;35.160;26.100;2024-03-07T12:13:44;101348.19;;;24.38;42.27
56402;BME280;42299;35.160;26.100;2024-03-07T12:19:08;101347.63;;;23.36;44.45
56402;BME280;42299;35.160;26.100;2024-03-07T12:24:33;101332.06;;;23.13;47.20
56402;BME280;42299;35.160;26.100;2024-03-07T12:29:56;101329.75;;;23.32;46.60
56402;BME280;42299;35.160;26.100;2024-03-07T12:35:22;101329.53;;;23.39;45.88
56402;BME280;42299;35.160;26.100;2024-03-07T12:41:02;101325.19;;;23.35;46.74
56402;BME280;42299;35.160;26.100;2024-03-07T12:46:28;101316.22;;;23.35;47.34
56402;BME280;42299;35.160;26.100;2024-03-07T12:51:53;101317.97;;;23.36;47.95
56402;BME280;42299;35.160;26.100;2024-03-07T12:57:24;101320.56;;;23.71;49.19
56402;BME280;42299;35.160;26.100;2024-03-07T13:02:49;101319.66;;;24.02;48.45
56402;BME280;42299;35.160;26.100;2024-03-07T13:08:11;101325.16;;;23.97;47.32
56402;BME280;42299;35.160;26.100;2024-03-07T13:13:35;101323.84;;;24.10;48.80
56402;BME280;42299;35.160;26.100;2024-03-07T13:18:58;101316.75;;;23.78;50.72
56402;BME280;42299;35.160;26.100;2024-03-07T13:24:27;101314.25;;;23.72;52.00
56402;BME280;42299;35.160;26.100;2024-03-07T13:29:52;101306.56;;;23.59;53.66
56402;BME280;42299;35.160;26.100;2024-03-07T13:35:15;101317.13;;;23.34;54.45
56402;BME280;42299;35.160;26.100;2024-03-07T13:40:40;101308.31;;;23.29;54.38
56402;BME280;42299;35.160;26.100;2024-03-07T13:46:05;101301.50;;;23.47;54.21
56402;BME280;42299;35.160;26.100;2024-03-07T13:51:27;101301.16;;;23.26;55.13
56402;BME280;42299;35.160;26.100;2024-03-07T13:56:55;101306.75;;;22.86;58.55
56402;BME280;42299;35.160;26.100;2024-03-07T14:08:30;101312.09;;;22.88;62.91
56402;BME280;42299;35.160;26.100;2024-03-07T14:32:25;101319.25;;;22.16;72.22
56402;BME280;42299;35.160;26.100;2024-03-07T14:37:53;101325.06;;;21.95;76.40
56402;BME280;42299;35.160;26.100;2024-03-07T14:43:18;101331.25;;;22.00;76.48
56402;BME280;42299;35.160;26.100;2024-03-07T14:48:43;101334.63;;;21.67;80.77
56402;BME280;42299;35.160;26.100;2024-03-07T14:54:05;101346.81;;;21.41;83.00
56402;BME280;42299;35.160;26.100;2024-03-07T14:59:32;101338.34;;;21.14;84.70
56402;BME280;42299;35.160;26.100;2024-03-07T15:05:00;101336.09;;;20.91;86.12
56402;BME280;42299;35.160;26.100;2024-03-07T15:10:29;101333.63;;;20.79;88.11
56402;BME280;42299;35.160;26.100;2024-03-07T15:15:53;101342.78;;;20.65;89.46
56402;BME280;42299;35.160;26.100;2024-03-07T15:21:18;101342.34;;;20.36;92.58
56402;BME280;42299;35.160;26.100;2024-03-07T15:26:41;101340.72;;;20.26;94.30
56402;BME280;42299;35.160;26.100;2024-03-07T15:32:04;101334.53;;;20.19;94.71
56402;BME280;42299;35.160;26.100;2024-03-07T15:37:29;101345.31;;;20.16;95.86
56402;BME280;42299;35.160;26.100;2024-03-07T15:42:51;101346.34;;;20.08;98.20
56402;BME280;42299;35.160;26.100;2024-03-07T15:48:14;101343.84;;;19.94;100.00
56402;BME280;42299;35.160;26.100;2024-03-07T15:53:39;101351.13;;;19.83;100.00
56402;BME280;42299;35.160;26.100;2024-03-07T15:59:03;101347.78;;;19.64;100.00
56402;BME280;42299;35.160;26.100;2024-03-07T16:04:26;101348.00;;;19.43;100.00
56402;BME280;42299;35.160;26.100;2024-03-07T16:09:50;101354.41;;;19.30;100.00
56402;BME280;42299;35.160;26.100;2024-03-07T16:15:14;101352.72;;;19.20;100.00
56402;BME280;42299;35.160;26.100;2024-03-07T16:20:37;101346.69;;;19.01;100.00
56402;BME280;42299;35.160;26.100;2024-03-07T16:26:02;101342.28;;;18.97;100.00
56402;BME280;42299;35.160;26.100;2024-03-07T16:31:26;101343.13;;;19.00;100.00
56402;BME280;42299;35.160;26.100;2024-03-07T16:36:49;101341.28;;;19.04;100.00
56402;BME280;42299;35.160;26.100;2024-03-07T16:42:22;101339.53;;;19.00;100.00
56402;BME280;42299;35.160;26.100;2024-03-07T16:47:45;101335.16;;;18.91;100.00
56402;BME280;42299;35.160;26.100;2024-03-07T16:53:18;101340.56;;;18.88;100.00
56402;BME280;42299;35.160;26.100;2024-03-07T16:58:42;101345.06;;;18.83;100.00
56402;BME280;42299;35.160;26.100;2024-03-07T17:04:04;101346.88;;;18.81;100.00
56402;BME280;42299;35.160;26.100;2024-03-07T17:09:28;101342.50;;;18.69;100.00
56402;BME280;42299;35.160;26.100;2024-03-07T17:14:53;101336.50;;;18.36;100.00
56402;BME280;42299;35.160;26.100;2024-03-07T17:20:19;101329.41;;;18.27;100.00
56402;BME280;42299;35.160;26.100;2024-03-07T17:25:47;101333.06;;;18.17;100.00
56402;BME280;42299;35.160;26.100;2024-03-07T17:31:15;101330.34;;;18.18;100.00
56402;BME280;42299;35.160;26.100;2024-03-07T17:36:40;101331.31;;;18.11;100.00
56402;BME280;42299;35.160;26.100;2024-03-07T17:42:06;101343.78;;;18.09;100.00
56402;BME280;42299;35.160;26.100;2024-03-07T17:47:33;101343.75;;;18.15;100.00
56402;BME280;42299;35.160;26.100;2024-03-07T17:52:56;101348.25;;;18.07;100.00
56402;BME280;42299;35.160;26.100;2024-03-07T17:58:22;101360.88;;;17.76;100.00
56402;BME280;42299;35.160;26.100;2024-03-07T18:03:50;101354.75;;;17.42;100.00
56402;BME280;42299;35.160;26.100;2024-03-07T18:09:17;101359.28;;;16.86;100.00
56402;BME280;42299;35.160;26.100;2024-03-07T18:14:48;101365.50;;;16.62;100.00
56402;BME280;42299;35.160;26.100;2024-03-07T18:20:17;101364.50;;;16.10;100.00
56402;BME280;42299;35.160;26.100;2024-03-07T18:25:42;101369.84;;;16.16;100.00
56402;BME280;42299;35.160;26.100;2024-03-07T18:31:04;101376.91;;;16.05;100.00
56402;BME280;42299;35.160;26.100;2024-03-07T18:36:37;101384.84;;;15.89;100.00
56402;BME280;42299;35.160;26.100;2024-03-07T18:42:00;101390.19;;;15.86;100.00
56402;BME280;42299;35.160;26.100;2024-03-07T18:47:24;101397.25;;;15.84;100.00
56402;BME280;42299;35.160;26.100;2024-03-07T18:52:50;101398.25;;;16.08;100.00
56402;BME280;42299;35.160;26.100;2024-03-07T18:58:13;101391.97;;;15.97;100.00
56402;BME280;42299;35.160;26.100;2024-03-07T19:03:35;101400.78;;;15.82;100.00
56402;BME280;42299;35.160;26.100;2024-03-07T19:09:01;101395.28;;;15.48;100.00
56402;BME280;42299;35.160;26.100;2024-03-07T19:14:23;101399.59;;;15.28;100.00
56402;BME280;42299;35.160;26.100;2024-03-07T19:19:46;101397.78;;;15.23;100.00
56402;BME280;42299;35.160;26.100;2024-03-07T19:25:11;101395.84;;;15.03;100.00
56402;BME280;42299;35.160;26.100;2024-03-07T19:30:35;101399.28;;;14.87;100.00
56402;BME280;42299;35.160;26.100;2024-03-07T19:35:57;101400.06;;;14.79;100.00
56402;BME280;42299;35.160;26.100;2024-03-07T19:41:24;101398.41;;;14.90;100.00
56402;BME280;42299;35.160;26.100;2024-03-07T19:46:46;101389.56;;;14.89;100.00
56402;BME280;42299;35.160;26.100;2024-03-07T19:52:10;101391.31;;;14.87;100.00
56402;BME280;42299;35.160;26.100;2024-03-07T19:57:37;101385.78;;;14.64;100.00
56402;BME280;42299;35.160;26.100;2024-03-07T20:03:00;101392.69;;;14.46;100.00
56402;BME280;42299;35.160;26.100;2024-03-07T20:08:24;101387.31;;;14.40;100.00
56402;BME280;42299;35.160;26.100;2024-03-07T20:13:49;101386.41;;;14.39;100.00
56402;BME280;42299;35.160;26.100;2024-03-07T20:19:12;101376.38;;;14.12;100.00
56402;BME280;42299;35.160;26.100;2024-03-07T20:24:34;101383.34;;;14.03;100.00
56402;BME280;42299;35.160;26.100;2024-03-07T20:30:00;101386.69;;;13.86;100.00
56402;BME280;42299;35.160;26.100;2024-03-07T20:35:23;101380.16;;;13.59;100.00
56402;BME280;42299;35.160;26.100;2024-03-07T20:40:45;101383.72;;;13.62;100.00
56402;BME280;42299;35.160;26.100;2024-03-07T20:46:09;101388.00;;;13.52;100.00
56402;BME280;42299;35.160;26.100;2024-03-07T20:51:32;101381.09;;;13.64;100.00
56402;BME280;42299;35.160;26.100;2024-03-07T20:56:57;101382.06;;;13.70;100.00
56402;BME280;42299;35.160;26.100;2024-03-07T21:02:21;101386.41;;;13.64;100.00
56402;BME280;42299;35.160;26.100;2024-03-07T21:07:45;101382.88;;;13.63;100.00
56402;BME280;42299;35.160;26.100;2024-03-07T21:13:09;101376.56;;;13.55;100.00
56402;BME280;42299;35.160;26.100;2024-03-07T21:18:35;101383.50;;;13.47;100.00
56402;BME280;42299;35.160;26.100;2024-03-07T21:23:58;101376.88;;;13.78;100.00
56402;BME280;42299;35.160;26.100;2024-03-07T21:29:21;101369.34;;;14.16;100.00
56402;BME280;42299;35.160;26.100;2024-03-07T21:34:45;101367.81;;;14.38;100.00
56402;BME280;42299;35.160;26.100;2024-03-07T21:40:09;101364.47;;;14.58;100.00
56402;BME280;42299;35.160;26.100;2024-03-07T21:45:36;101369.81;;;14.64;100.00
56402;BME280;42299;35.160;26.100;2024-03-07T21:51:00;101343.00;;;14.37;100.00
56402;BME280;42299;35.160;26.100;2024-03-07T21:56:27;101340.00;;;14.04;100.00
56402;BME280;42299;35.160;26.100;2024-03-07T22:01:49;101331.09;;;14.00;100.00
56402;BME280;42299;35.160;26.100;2024-03-07T22:07:14;101337.84;;;13.71;100.00
56402;BME280;42299;35.160;26.100;2024-03-07T22:12:40;101335.66;;;13.39;100.00
56402;BME280;42299;35.160;26.100;2024-03-07T22:18:03;101332.94;;;13.32;100.00
56402;BME280;42299;35.160;26.100;2024-03-07T22:23:29;101333.13;;;13.47;100.00
56402;BME280;42299;35.160;26.100;2024-03-07T22:28:53;101335.69;;;13.41;100.00
56402;BME280;42299;35.160;26.100;2024-03-07T22:34:17;101334.69;;;13.31;100.00
56402;BME280;42299;35.160;26.100;2024-03-07T22:39:45;101328.63;;;13.41;100.00
56402;BME280;42299;35.160;26.100;2024-03-07T22:45:08;101326.91;;;13.43;100.00
56402;BME280;42299;35.160;26.100;2024-03-07T22:50:32;101321.09;;;13.75;100.00
56402;BME280;42299;35.160;26.100;2024-03-07T22:55:56;101321.47;;;14.10;100.00
56402;BME280;42299;35.160;26.100;2024-03-07T23:01:28;101302.22;;;14.30;100.00
56402;BME280;42299;35.160;26.100;2024-03-07T23:06:50;101307.56;;;14.36;100.00
56402;BME280;42299;35.160;26.100;2024-03-07T23:12:14;101294.38;;;14.44;100.00
56402;BME280;42299;35.160;26.100;2024-03-07T23:17:39;101300.63;;;14.51;100.00
56402;BME280;42299;35.160;26.100;2024-03-07T23:23:04;101304.75;;;14.17;100.00
56402;BME280;42299;35.160;26.100;2024-03-07T23:28:28;101315.88;;;13.85;100.00
56402;BME280;42299;35.160;26.100;2024-03-07T23:33:51;101308.47;;;13.55;100.00
56402;BME280;42299;35.160;26.100;2024-03-07T23:39:16;101303.69;;;13.27;100.00
56402;BME280;42299;35.160;26.100;2024-03-07T23:44:42;101300.50;;;12.91;100.00
56402;BME280;42299;35.160;26.100;2024-03-07T23:50:05;101298.25;;;12.61;100.00
56402;BME280;42299;35.160;26.100;2024-03-07T23:55:31;101289.00;;;12.33;100.00
